sensor_id;sensor_type;location;lat;lon;timestamp;pressure;altitude;pressure_sealevel;temperature;humidity
70930;BME280;58588;48.102;19.682;2023-02-12T00:01:23;100636.81;;;-0.70;100.00
70930;BME280;58588;48.102;19.682;2023-02-12T00:04:25;100634.94;;;-0.68;100.00
70930;BME280;58588;48.102;19.682;2023-02-12T00:07:29;100639.78;;;-0.61;100.00
70930;BME280;58588;48.102;19.682;2023-02-12T00:10:31;100634.09;;;-0.53;100.00
70930;BME280;58588;48.102;19.682;2023-02-12T00:13:34;100642.19;;;-0.40;100.00
70930;BME280;58588;48.102;19.682;2023-02-12T00:16:37;100647.97;;;-0.49;100.00
70930;BME280;58588;48.102;19.682;2023-02-12T00:19:39;100659.44;;;-0.49;100.00
70930;BME280;58588;48.102;19.682;2023-02-12T00:22:41;100650.81;;;-0.52;100.00
70930;BME280;58588;48.102;19.682;2023-02-12T00:25:43;100649.19;;;-0.55;100.00
70930;BME280;58588;48.102;19.682;2023-02-12T00:28:47;100653.38;;;-0.67;100.00
70930;BME280;58588;48.102;19.682;2023-02-12T00:31:49;100655.59;;;-0.75;100.00
70930;BME280;58588;48.102;19.682;2023-02-12T00:34:51;100658.44;;;-0.78;100.00
70930;BME280;58588;48.102;19.682;2023-02-12T00:37:53;100650.06;;;-0.86;100.00
70930;BME280;58588;48.102;19.682;2023-02-12T00:40:55;100663.63;;;-0.92;100.00
70930;BME280;58588;48.102;19.682;2023-02-12T00:43:59;100660.03;;;-0.91;100.00
70930;BME280;58588;48.102;19.682;2023-02-12T00:47:01;100664.91;;;-0.99;100.00
70930;BME280;58588;48.102;19.682;2023-02-12T00:50:03;100666.75;;;-1.17;100.00
70930;BME280;58588;48.102;19.682;2023-02-12T00:53:05;100659.28;;;-1.26;100.00
70930;BME280;58588;48.102;19.682;2023-02-12T00:56:07;100653.94;;;-1.25;100.00
70930;BME280;58588;48.102;19.682;2023-02-12T00:59:11;100660.56;;;-1.33;100.00
70930;BME280;58588;48.102;19.682;2023-02-12T01:02:49;100671.75;;;-1.28;100.00
70930;BME280;58588;48.102;19.682;2023-02-12T01:05:51;100668.72;;;-1.38;100.00
70930;BME280;58588;48.102;19.682;2023-02-12T01:08:53;100666.50;;;-1.46;100.00
70930;BME280;58588;48.102;19.682;2023-02-12T01:11:56;100666.72;;;-1.50;100.00
70930;BME280;58588;48.102;19.682;2023-02-12T01:14:59;100663.50;;;-1.73;100.00
70930;BME280;58588;48.102;19.682;2023-02-12T01:18:01;100659.22;;;-1.75;100.00
70930;BME280;58588;48.102;19.682;2023-02-12T01:21:08;100660.06;;;-1.75;100.00
70930;BME280;58588;48.102;19.682;2023-02-12T01:24:11;100663.03;;;-1.81;100.00
70930;BME280;58588;48.102;19.682;2023-02-12T01:27:13;100670.81;;;-1.78;100.00
70930;BME280;58588;48.102;19.682;2023-02-12T01:30:17;100674.94;;;-1.72;100.00
70930;BME280;58588;48.102;19.682;2023-02-12T01:33:21;100669.16;;;-1.80;100.00
70930;BME280;58588;48.102;19.682;2023-02-12T01:36:23;100672.53;;;-1.94;100.00
70930;BME280;58588;48.102;19.682;2023-02-12T01:39:26;100672.59;;;-2.13;100.00
70930;BME280;58588;48.102;19.682;2023-02-12T01:42:28;100691.84;;;-2.11;100.00
70930;BME280;58588;48.102;19.682;2023-02-12T01:45:45;100687.59;;;-2.13;100.00
70930;BME280;58588;48.102;19.682;2023-02-12T01:48:47;100679.66;;;-2.13;100.00
70930;BME280;58588;48.102;19.682;2023-02-12T01:51:52;100682.75;;;-2.23;100.00
70930;BME280;58588;48.102;19.682;2023-02-12T01:54:59;100689.59;;;-2.19;100.00
70930;BME280;58588;48.102;19.682;2023-02-12T01:58:03;100690.75;;;-2.24;100.00
70930;BME280;58588;48.102;19.682;2023-02-12T02:01:10;100689.66;;;-2.37;100.00
70930;BME280;58588;48.102;19.682;2023-02-12T02:04:16;100699.34;;;-2.38;100.00
70930;BME280;58588;48.102;19.682;2023-02-12T02:07:20;100699.13;;;-2.33;100.00
70930;BME280;58588;48.102;19.682;2023-02-12T02:10:22;100692.13;;;-2.34;100.00
70930;BME280;58588;48.102;19.682;2023-02-12T02:13:24;100695.44;;;-2.48;100.00
70930;BME280;58588;48.102;19.682;2023-02-12T02:16:53;100693.94;;;-2.54;100.00
70930;BME280;58588;48.102;19.682;2023-02-12T02:20:24;100693.81;;;-2.51;100.00
70930;BME280;58588;48.102;19.682;2023-02-12T02:23:52;100696.72;;;-2.38;100.00
70930;BME280;58588;48.102;19.682;2023-02-12T02:27:22;100699.66;;;-2.44;100.00
70930;BME280;58588;48.102;19.682;2023-02-12T02:30:33;100704.13;;;-2.46;100.00
70930;BME280;58588;48.102;19.682;2023-02-12T02:33:49;100709.34;;;-2.45;100.00
70930;BME280;58588;48.102;19.682;2023-02-12T02:37:14;100713.78;;;-2.45;100.00
70930;BME280;58588;48.102;19.682;2023-02-12T02:40:19;100705.88;;;-2.45;100.00
70930;BME280;58588;48.102;19.682;2023-02-12T02:43:27;100705.00;;;-2.64;100.00
70930;BME280;58588;48.102;19.682;2023-02-12T02:46:35;100704.38;;;-2.70;100.00
70930;BME280;58588;48.102;19.682;2023-02-12T02:49:44;100703.19;;;-2.81;100.00
70930;BME280;58588;48.102;19.682;2023-02-12T02:52:51;100708.28;;;-2.97;100.00
70930;BME280;58588;48.102;19.682;2023-02-12T02:55:57;100714.84;;;-3.06;100.00
70930;BME280;58588;48.102;19.682;2023-02-12T02:59:04;100714.34;;;-2.95;100.00
70930;BME280;58588;48.102;19.682;2023-02-12T03:02:14;100714.28;;;-2.93;100.00
70930;BME280;58588;48.102;19.682;2023-02-12T03:05:22;100714.34;;;-2.95;100.00
70930;BME280;58588;48.102;19.682;2023-02-12T03:08:29;100723.69;;;-2.88;100.00
70930;BME280;58588;48.102;19.682;2023-02-12T03:11:34;100726.28;;;-2.86;100.00
70930;BME280;58588;48.102;19.682;2023-02-12T03:14:38;100730.53;;;-3.03;100.00
70930;BME280;58588;48.102;19.682;2023-02-12T03:17:46;100728.09;;;-3.07;100.00
70930;BME280;58588;48.102;19.682;2023-02-12T03:20:52;100728.72;;;-3.21;100.00
70930;BME280;58588;48.102;19.682;2023-02-12T03:24:00;100738.72;;;-3.09;100.00
70930;BME280;58588;48.102;19.682;2023-02-12T03:27:07;100742.13;;;-3.07;100.00
70930;BME280;58588;48.102;19.682;2023-02-12T03:30:11;100744.75;;;-3.07;100.00
70930;BME280;58588;48.102;19.682;2023-02-12T03:33:20;100743.63;;;-3.01;100.00
70930;BME280;58588;48.102;19.682;2023-02-12T03:36:31;100751.63;;;-3.03;100.00
70930;BME280;58588;48.102;19.682;2023-02-12T03:39:43;100759.63;;;-3.04;100.00
70930;BME280;58588;48.102;19.682;2023-02-12T03:42:50;100758.19;;;-3.11;100.00
70930;BME280;58588;48.102;19.682;2023-02-12T03:45:57;100762.88;;;-3.38;100.00
70930;BME280;58588;48.102;19.682;2023-02-12T03:49:07;100771.03;;;-3.44;100.00
70930;BME280;58588;48.102;19.682;2023-02-12T03:52:11;100788.00;;;-3.30;100.00
70930;BME280;58588;48.102;19.682;2023-02-12T03:55:13;100797.91;;;-3.36;100.00
70930;BME280;58588;48.102;19.682;2023-02-12T03:58:22;100787.19;;;-3.52;100.00
70930;BME280;58588;48.102;19.682;2023-02-12T04:01:26;100791.84;;;-3.59;100.00
70930;BME280;58588;48.102;19.682;2023-02-12T04:04:31;100801.59;;;-3.61;100.00
70930;BME280;58588;48.102;19.682;2023-02-12T04:07:35;100804.53;;;-3.68;100.00
70930;BME280;58588;48.102;19.682;2023-02-12T04:10:46;100807.06;;;-3.65;100.00
70930;BME280;58588;48.102;19.682;2023-02-12T04:14:10;100810.75;;;-3.69;100.00
70930;BME280;58588;48.102;19.682;2023-02-12T04:17:20;100802.50;;;-3.62;100.00
70930;BME280;58588;48.102;19.682;2023-02-12T04:20:30;100816.72;;;-3.66;100.00
70930;BME280;58588;48.102;19.682;2023-02-12T04:23:46;100819.31;;;-3.64;100.00
70930;BME280;58588;48.102;19.682;2023-02-12T04:26:53;100821.00;;;-3.84;100.00
70930;BME280;58588;48.102;19.682;2023-02-12T04:30:01;100828.56;;;-3.76;100.00
70930;BME280;58588;48.102;19.682;2023-02-12T04:33:07;100831.53;;;-3.84;100.00
70930;BME280;58588;48.102;19.682;2023-02-12T04:36:20;100830.97;;;-3.92;100.00
70930;BME280;58588;48.102;19.682;2023-02-12T04:39:25;100826.63;;;-3.93;100.00
70930;BME280;58588;48.102;19.682;2023-02-12T04:42:28;100836.13;;;-3.89;100.00
70930;BME280;58588;48.102;19.682;2023-02-12T04:45:33;100839.38;;;-3.82;100.00
70930;BME280;58588;48.102;19.682;2023-02-12T04:48:36;100846.03;;;-3.73;100.00
70930;BME280;58588;48.102;19.682;2023-02-12T04:51:42;100845.09;;;-3.51;100.00
70930;BME280;58588;48.102;19.682;2023-02-12T04:54:44;100857.09;;;-3.43;100.00
70930;BME280;58588;48.102;19.682;2023-02-12T04:57:46;100860.72;;;-3.46;100.00
70930;BME280;58588;48.102;19.682;2023-02-12T05:00:48;100865.31;;;-3.51;100.00
70930;BME280;58588;48.102;19.682;2023-02-12T05:03:51;100862.53;;;-3.48;100.00
70930;BME280;58588;48.102;19.682;2023-02-12T05:06:54;100863.50;;;-3.71;100.00
70930;BME280;58588;48.102;19.682;2023-02-12T05:09:56;100879.25;;;-3.69;100.00
70930;BME280;58588;48.102;19.682;2023-02-12T05:13:01;100870.84;;;-3.79;100.00
70930;BME280;58588;48.102;19.682;2023-02-12T05:16:04;100869.13;;;-3.80;100.00
70930;BME280;58588;48.102;19.682;2023-02-12T05:19:06;100881.75;;;-3.88;100.00
70930;BME280;58588;48.102;19.682;2023-02-12T05:22:11;100896.13;;;-3.97;100.00
70930;BME280;58588;48.102;19.682;2023-02-12T05:25:13;100872.47;;;-3.98;100.00
70930;BME280;58588;48.102;19.682;2023-02-12T05:28:15;100889.66;;;-3.88;100.00
70930;BME280;58588;48.102;19.682;2023-02-12T05:31:18;100906.63;;;-3.73;100.00
70930;BME280;58588;48.102;19.682;2023-02-12T05:34:21;100894.50;;;-3.78;100.00
70930;BME280;58588;48.102;19.682;2023-02-12T05:37:25;100892.22;;;-3.87;100.00
70930;BME280;58588;48.102;19.682;2023-02-12T05:40:27;100901.34;;;-3.95;100.00
70930;BME280;58588;48.102;19.682;2023-02-12T05:43:29;100901.84;;;-4.09;100.00
70930;BME280;58588;48.102;19.682;2023-02-12T05:46:31;100913.44;;;-4.13;100.00
70930;BME280;58588;48.102;19.682;2023-02-12T05:49:33;100911.75;;;-4.16;100.00
70930;BME280;58588;48.102;19.682;2023-02-12T05:52:37;100921.38;;;-4.15;100.00
70930;BME280;58588;48.102;19.682;2023-02-12T05:55:39;100924.00;;;-4.15;100.00
70930;BME280;58588;48.102;19.682;2023-02-12T05:58:42;100941.66;;;-4.17;100.00
70930;BME280;58588;48.102;19.682;2023-02-12T06:01:46;100948.06;;;-4.24;100.00
70930;BME280;58588;48.102;19.682;2023-02-12T06:04:49;100940.56;;;-4.11;100.00
70930;BME280;58588;48.102;19.682;2023-02-12T06:07:52;100954.50;;;-4.09;100.00
70930;BME280;58588;48.102;19.682;2023-02-12T06:10:58;100977.59;;;-3.92;100.00
70930;BME280;58588;48.102;19.682;2023-02-12T06:14:01;100977.50;;;-3.89;100.00
70930;BME280;58588;48.102;19.682;2023-02-12T06:17:03;100980.63;;;-3.80;100.00
70930;BME280;58588;48.102;19.682;2023-02-12T06:20:06;100980.06;;;-3.88;100.00
70930;BME280;58588;48.102;19.682;2023-02-12T06:23:09;100978.19;;;-4.08;100.00
70930;BME280;58588;48.102;19.682;2023-02-12T06:26:11;100988.25;;;-3.95;100.00
70930;BME280;58588;48.102;19.682;2023-02-12T06:29:13;100995.94;;;-3.89;100.00
70930;BME280;58588;48.102;19.682;2023-02-12T06:32:15;101006.63;;;-3.94;100.00
70930;BME280;58588;48.102;19.682;2023-02-12T06:35:17;101001.13;;;-3.88;100.00
70930;BME280;58588;48.102;19.682;2023-02-12T06:38:21;101006.50;;;-3.67;100.00
70930;BME280;58588;48.102;19.682;2023-02-12T06:41:23;101014.78;;;-3.55;100.00
70930;BME280;58588;48.102;19.682;2023-02-12T06:44:25;101032.03;;;-3.46;100.00
70930;BME280;58588;48.102;19.682;2023-02-12T06:47:27;101034.44;;;-3.40;100.00
70930;BME280;58588;48.102;19.682;2023-02-12T06:50:29;101048.94;;;-3.28;100.00
70930;BME280;58588;48.102;19.682;2023-02-12T06:53:33;101047.94;;;-3.26;100.00
70930;BME280;58588;48.102;19.682;2023-02-12T06:56:35;101055.75;;;-3.22;100.00
70930;BME280;58588;48.102;19.682;2023-02-12T06:59:37;101053.09;;;-3.01;100.00
70930;BME280;58588;48.102;19.682;2023-02-12T07:02:39;101047.97;;;-3.04;100.00
70930;BME280;58588;48.102;19.682;2023-02-12T07:05:41;101064.47;;;-2.99;100.00
70930;BME280;58588;48.102;19.682;2023-02-12T07:08:45;101063.47;;;-2.96;100.00
70930;BME280;58588;48.102;19.682;2023-02-12T07:11:47;101062.63;;;-2.75;100.00
70930;BME280;58588;48.102;19.682;2023-02-12T07:14:49;101060.19;;;-2.59;100.00
70930;BME280;58588;48.102;19.682;2023-02-12T07:17:51;101069.38;;;-2.47;100.00
70930;BME280;58588;48.102;19.682;2023-02-12T07:20:55;101067.81;;;-2.31;100.00
70930;BME280;58588;48.102;19.682;2023-02-12T07:23:58;101076.84;;;-2.16;100.00
70930;BME280;58588;48.102;19.682;2023-02-12T07:27:00;101066.69;;;-2.05;100.00
70930;BME280;58588;48.102;19.682;2023-02-12T07:30:03;101073.94;;;-1.90;100.00
70930;BME280;58588;48.102;19.682;2023-02-12T07:33:05;101073.88;;;-1.68;100.00
70930;BME280;58588;48.102;19.682;2023-02-12T07:36:09;101079.56;;;-1.58;100.00
70930;BME280;58588;48.102;19.682;2023-02-12T07:39:13;101081.28;;;-1.38;100.00
70930;BME280;58588;48.102;19.682;2023-02-12T07:42:15;101072.59;;;-1.21;100.00
70930;BME280;58588;48.102;19.682;2023-02-12T07:45:17;101086.69;;;-1.02;100.00
70930;BME280;58588;48.102;19.682;2023-02-12T07:48:19;101090.94;;;-0.81;100.00
70930;BME280;58588;48.102;19.682;2023-02-12T07:51:21;101101.34;;;-0.59;100.00
70930;BME280;58588;48.102;19.682;2023-02-12T07:54:25;101106.38;;;-0.35;100.00
70930;BME280;58588;48.102;19.682;2023-02-12T07:57:27;101098.50;;;-0.19;100.00
70930;BME280;58588;48.102;19.682;2023-02-12T08:00:29;101101.69;;;0.05;100.00
70930;BME280;58588;48.102;19.682;2023-02-12T08:03:31;101103.69;;;0.17;100.00
70930;BME280;58588;48.102;19.682;2023-02-12T08:06:35;101104.78;;;0.30;100.00
70930;BME280;58588;48.102;19.682;2023-02-12T08:09:40;101101.94;;;0.50;100.00
70930;BME280;58588;48.102;19.682;2023-02-12T08:12:42;101108.31;;;0.79;100.00
70930;BME280;58588;48.102;19.682;2023-02-12T08:15:44;101118.00;;;0.96;100.00
70930;BME280;58588;48.102;19.682;2023-02-12T08:18:46;101117.91;;;1.14;100.00
70930;BME280;58588;48.102;19.682;2023-02-12T08:21:49;101123.63;;;1.53;100.00
70930;BME280;58588;48.102;19.682;2023-02-12T08:24:53;101122.22;;;1.78;100.00
70930;BME280;58588;48.102;19.682;2023-02-12T08:27:55;101118.09;;;2.02;100.00
70930;BME280;58588;48.102;19.682;2023-02-12T08:30:59;101113.88;;;2.14;100.00
70930;BME280;58588;48.102;19.682;2023-02-12T08:34:01;101120.34;;;2.24;100.00
70930;BME280;58588;48.102;19.682;2023-02-12T08:37:07;101127.41;;;2.54;100.00
70930;BME280;58588;48.102;19.682;2023-02-12T08:40:54;101126.09;;;2.89;100.00
70930;BME280;58588;48.102;19.682;2023-02-12T08:44:01;101132.78;;;3.23;100.00
70930;BME280;58588;48.102;19.682;2023-02-12T08:47:03;101130.88;;;3.53;100.00
70930;BME280;58588;48.102;19.682;2023-02-12T08:50:07;101133.44;;;3.81;100.00
70930;BME280;58588;48.102;19.682;2023-02-12T08:53:09;101141.50;;;3.94;100.00
70930;BME280;58588;48.102;19.682;2023-02-12T08:56:14;101141.31;;;4.10;100.00
70930;BME280;58588;48.102;19.682;2023-02-12T08:59:16;101134.19;;;4.36;100.00
70930;BME280;58588;48.102;19.682;2023-02-12T09:02:18;101139.66;;;4.60;100.00
70930;BME280;58588;48.102;19.682;2023-02-12T09:05:21;101147.56;;;4.74;100.00
70930;BME280;58588;48.102;19.682;2023-02-12T09:08:23;101153.00;;;4.85;100.00
70930;BME280;58588;48.102;19.682;2023-02-12T09:11:27;101146.09;;;5.19;100.00
70930;BME280;58588;48.102;19.682;2023-02-12T09:14:31;101151.41;;;5.32;100.00
70930;BME280;58588;48.102;19.682;2023-02-12T09:17:33;101152.19;;;5.21;100.00
70930;BME280;58588;48.102;19.682;2023-02-12T09:20:37;101158.03;;;5.63;100.00
70930;BME280;58588;48.102;19.682;2023-02-12T09:23:40;101155.88;;;5.68;100.00
70930;BME280;58588;48.102;19.682;2023-02-12T09:26:45;101154.91;;;5.69;100.00
70930;BME280;58588;48.102;19.682;2023-02-12T09:29:47;101162.63;;;5.98;100.00
70930;BME280;58588;48.102;19.682;2023-02-12T09:32:50;101160.84;;;5.85;100.00
70930;BME280;58588;48.102;19.682;2023-02-12T09:35:52;101171.44;;;6.11;100.00
70930;BME280;58588;48.102;19.682;2023-02-12T09:38:54;101176.66;;;6.48;100.00
70930;BME280;58588;48.102;19.682;2023-02-12T09:42:12;101170.00;;;6.53;100.00
70930;BME280;58588;48.102;19.682;2023-02-12T09:45:21;101165.78;;;6.73;100.00
70930;BME280;58588;48.102;19.682;2023-02-12T09:48:38;101175.19;;;6.90;100.00
70930;BME280;58588;48.102;19.682;2023-02-12T09:51:47;101176.16;;;7.00;100.00
70930;BME280;58588;48.102;19.682;2023-02-12T09:54:51;101173.59;;;6.98;100.00
70930;BME280;58588;48.102;19.682;2023-02-12T09:57:55;101169.81;;;7.23;100.00
70930;BME280;58588;48.102;19.682;2023-02-12T10:00:58;101175.50;;;7.41;97.52
70930;BME280;58588;48.102;19.682;2023-02-12T10:04:03;101172.09;;;7.62;94.82
70930;BME280;58588;48.102;19.682;2023-02-12T10:07:16;101186.81;;;8.11;95.79
70930;BME280;58588;48.102;19.682;2023-02-12T10:10:39;101194.41;;;8.05;91.06
70930;BME280;58588;48.102;19.682;2023-02-12T10:14:00;101197.25;;;8.25;89.37
70930;BME280;58588;48.102;19.682;2023-02-12T10:17:12;101198.59;;;8.19;90.75
70930;BME280;58588;48.102;19.682;2023-02-12T10:20:43;101202.09;;;8.10;89.85
70930;BME280;58588;48.102;19.682;2023-02-12T10:27:34;101206.06;;;8.69;92.19
70930;BME280;58588;48.102;19.682;2023-02-12T10:30:44;101208.56;;;8.81;89.12
70930;BME280;58588;48.102;19.682;2023-02-12T10:33:50;101209.50;;;8.71;85.46
70930;BME280;58588;48.102;19.682;2023-02-12T10:37:00;101208.69;;;9.01;85.27
70930;BME280;58588;48.102;19.682;2023-02-12T10:40:18;101203.47;;;9.39;84.10
70930;BME280;58588;48.102;19.682;2023-02-12T10:43:23;101199.69;;;9.42;81.82
70930;BME280;58588;48.102;19.682;2023-02-12T10:46:28;101207.25;;;9.68;79.33
70930;BME280;58588;48.102;19.682;2023-02-12T10:49:40;101188.28;;;9.79;79.74
70930;BME280;58588;48.102;19.682;2023-02-12T10:52:46;101194.09;;;9.74;75.10
70930;BME280;58588;48.102;19.682;2023-02-12T10:55:49;101198.41;;;10.25;77.06
70930;BME280;58588;48.102;19.682;2023-02-12T10:58:55;101191.31;;;10.24;76.24
70930;BME280;58588;48.102;19.682;2023-02-12T11:02:00;101202.53;;;10.39;80.89
70930;BME280;58588;48.102;19.682;2023-02-12T11:05:21;101207.19;;;10.76;71.45
70930;BME280;58588;48.102;19.682;2023-02-12T11:08:30;101198.56;;;10.62;71.14
70930;BME280;58588;48.102;19.682;2023-02-12T11:11:37;101203.16;;;10.89;67.41
70930;BME280;58588;48.102;19.682;2023-02-12T11:14:39;101206.13;;;10.96;66.23
70930;BME280;58588;48.102;19.682;2023-02-12T11:17:53;101194.88;;;11.47;68.52
70930;BME280;58588;48.102;19.682;2023-02-12T11:20:58;101193.81;;;11.21;70.42
70930;BME280;58588;48.102;19.682;2023-02-12T11:24:25;101191.97;;;11.21;67.49
70930;BME280;58588;48.102;19.682;2023-02-12T11:27:29;101189.19;;;11.13;65.01
70930;BME280;58588;48.102;19.682;2023-02-12T11:30:32;101197.06;;;11.34;65.94
70930;BME280;58588;48.102;19.682;2023-02-12T11:33:36;101198.25;;;11.22;62.50
70930;BME280;58588;48.102;19.682;2023-02-12T11:36:40;101202.09;;;11.19;64.42
70930;BME280;58588;48.102;19.682;2023-02-12T11:39:46;101201.16;;;11.38;61.71
70930;BME280;58588;48.102;19.682;2023-02-12T11:42:51;101196.16;;;11.43;62.72
70930;BME280;58588;48.102;19.682;2023-02-12T11:45:55;101198.84;;;11.71;58.28
70930;BME280;58588;48.102;19.682;2023-02-12T11:49:00;101195.75;;;11.38;59.99
70930;BME280;58588;48.102;19.682;2023-02-12T11:52:19;101191.69;;;11.24;60.51
70930;BME280;58588;48.102;19.682;2023-02-12T11:55:26;101194.88;;;11.47;56.78
70930;BME280;58588;48.102;19.682;2023-02-12T11:58:32;101186.56;;;11.86;60.12
70930;BME280;58588;48.102;19.682;2023-02-12T12:01:51;101184.94;;;11.93;58.48
70930;BME280;58588;48.102;19.682;2023-02-12T12:05:04;101179.47;;;12.03;57.92
70930;BME280;58588;48.102;19.682;2023-02-12T12:08:13;101192.19;;;12.28;58.48
70930;BME280;58588;48.102;19.682;2023-02-12T12:11:19;101197.34;;;12.57;57.05
70930;BME280;58588;48.102;19.682;2023-02-12T12:14:25;101196.16;;;12.34;56.80
70930;BME280;58588;48.102;19.682;2023-02-12T12:17:39;101198.09;;;11.78;58.69
70930;BME280;58588;48.102;19.682;2023-02-12T12:21:07;101184.56;;;11.61;58.85
70930;BME280;58588;48.102;19.682;2023-02-12T12:24:14;101188.97;;;11.34;58.80
70930;BME280;58588;48.102;19.682;2023-02-12T12:27:22;101191.34;;;11.00;56.40
70930;BME280;58588;48.102;19.682;2023-02-12T12:30:53;101193.28;;;10.61;62.08
70930;BME280;58588;48.102;19.682;2023-02-12T12:34:04;101192.31;;;10.42;63.57
70930;BME280;58588;48.102;19.682;2023-02-12T12:37:23;101178.94;;;10.12;64.97
70930;BME280;58588;48.102;19.682;2023-02-12T12:40:37;101178.50;;;9.87;65.98
70930;BME280;58588;48.102;19.682;2023-02-12T12:43:51;101178.78;;;9.75;65.98
70930;BME280;58588;48.102;19.682;2023-02-12T12:47:06;101175.53;;;10.00;66.40
70930;BME280;58588;48.102;19.682;2023-02-12T12:50:31;101182.53;;;10.51;65.84
70930;BME280;58588;48.102;19.682;2023-02-12T12:53:47;101170.25;;;10.76;64.46
70930;BME280;58588;48.102;19.682;2023-02-12T12:57:00;101172.69;;;10.69;64.47
70930;BME280;58588;48.102;19.682;2023-02-12T13:00:21;101173.44;;;10.52;64.61
70930;BME280;58588;48.102;19.682;2023-02-12T13:07:04;101175.16;;;10.34;63.96
70930;BME280;58588;48.102;19.682;2023-02-12T13:10:22;101166.63;;;9.90;65.05
70930;BME280;58588;48.102;19.682;2023-02-12T13:13:31;101176.03;;;9.55;66.35
70930;BME280;58588;48.102;19.682;2023-02-12T13:16:39;101181.25;;;9.47;66.51
70930;BME280;58588;48.102;19.682;2023-02-12T13:19:54;101185.38;;;9.42;66.43
70930;BME280;58588;48.102;19.682;2023-02-12T13:23:03;101182.47;;;9.33;66.55
70930;BME280;58588;48.102;19.682;2023-02-12T13:26:12;101184.81;;;9.17;67.28
70930;BME280;58588;48.102;19.682;2023-02-12T13:29:19;101189.88;;;9.01;67.16
70930;BME280;58588;48.102;19.682;2023-02-12T13:32:24;101186.19;;;9.02;67.87
70930;BME280;58588;48.102;19.682;2023-02-12T13:35:28;101182.59;;;9.22;67.52
70930;BME280;58588;48.102;19.682;2023-02-12T13:38:35;101184.19;;;9.04;67.86
70930;BME280;58588;48.102;19.682;2023-02-12T13:41:45;101188.56;;;9.26;67.40
70930;BME280;58588;48.102;19.682;2023-02-12T13:44:56;101183.72;;;9.70;69.01
70930;BME280;58588;48.102;19.682;2023-02-12T13:48:15;101175.53;;;9.81;67.84
70930;BME280;58588;48.102;19.682;2023-02-12T13:51:29;101178.72;;;10.44;66.88
70930;BME280;58588;48.102;19.682;2023-02-12T13:54:53;101187.75;;;10.62;64.63
70930;BME280;58588;48.102;19.682;2023-02-12T14:01:43;101173.53;;;11.44;61.63
70930;BME280;58588;48.102;19.682;2023-02-12T14:04:52;101178.41;;;11.41;60.81
70930;BME280;58588;48.102;19.682;2023-02-12T14:08:03;101175.09;;;11.47;59.79
70930;BME280;58588;48.102;19.682;2023-02-12T14:11:07;101186.44;;;11.50;59.64
70930;BME280;58588;48.102;19.682;2023-02-12T14:14:10;101189.25;;;11.59;60.76
70930;BME280;58588;48.102;19.682;2023-02-12T14:24:53;101187.84;;;11.27;61.18
70930;BME280;58588;48.102;19.682;2023-02-12T14:27:56;101191.84;;;11.23;60.13
70930;BME280;58588;48.102;19.682;2023-02-12T14:34:41;101194.25;;;11.26;60.80
70930;BME280;58588;48.102;19.682;2023-02-12T14:37:43;101195.16;;;11.72;58.61
70930;BME280;58588;48.102;19.682;2023-02-12T14:40:48;101197.84;;;11.99;57.06
70930;BME280;58588;48.102;19.682;2023-02-12T14:43:50;101197.16;;;12.33;59.81
70930;BME280;58588;48.102;19.682;2023-02-12T14:47:11;101191.53;;;12.70;57.35
70930;BME280;58588;48.102;19.682;2023-02-12T14:50:17;101200.03;;;13.01;56.20
70930;BME280;58588;48.102;19.682;2023-02-12T14:53:26;101192.84;;;13.18;54.31
70930;BME280;58588;48.102;19.682;2023-02-12T14:56:47;101197.13;;;12.95;55.73
70930;BME280;58588;48.102;19.682;2023-02-12T14:59:51;101202.31;;;12.88;54.60
70930;BME280;58588;48.102;19.682;2023-02-12T15:03:00;101199.19;;;12.75;54.65
70930;BME280;58588;48.102;19.682;2023-02-12T15:06:08;101208.06;;;12.05;55.87
70930;BME280;58588;48.102;19.682;2023-02-12T15:09:15;101202.13;;;11.47;56.91
70930;BME280;58588;48.102;19.682;2023-02-12T15:12:26;101201.22;;;11.84;55.57
70930;BME280;58588;48.102;19.682;2023-02-12T15:15:34;101207.50;;;12.02;55.00
70930;BME280;58588;48.102;19.682;2023-02-12T15:18:45;101208.50;;;12.54;53.63
70930;BME280;58588;48.102;19.682;2023-02-12T15:21:51;101209.63;;;12.70;52.89
70930;BME280;58588;48.102;19.682;2023-02-12T15:25:16;101211.19;;;12.98;51.72
70930;BME280;58588;48.102;19.682;2023-02-12T15:28:26;101212.72;;;13.01;51.69
70930;BME280;58588;48.102;19.682;2023-02-12T15:31:34;101213.06;;;12.72;51.82
70930;BME280;58588;48.102;19.682;2023-02-12T15:34:36;101220.31;;;11.82;54.04
70930;BME280;58588;48.102;19.682;2023-02-12T15:37:42;101223.38;;;10.76;58.89
70930;BME280;58588;48.102;19.682;2023-02-12T15:40:53;101224.59;;;9.94;59.68
70930;BME280;58588;48.102;19.682;2023-02-12T15:43:57;101234.53;;;9.13;62.24
70930;BME280;58588;48.102;19.682;2023-02-12T15:47:02;101243.66;;;8.80;63.64
70930;BME280;58588;48.102;19.682;2023-02-12T15:50:12;101251.06;;;8.46;64.99
70930;BME280;58588;48.102;19.682;2023-02-12T15:53:15;101261.53;;;8.05;66.08
70930;BME280;58588;48.102;19.682;2023-02-12T15:56:19;101253.66;;;7.70;67.22
70930;BME280;58588;48.102;19.682;2023-02-12T15:59:25;101261.00;;;7.35;68.94
70930;BME280;58588;48.102;19.682;2023-02-12T16:02:30;101267.44;;;7.10;69.87
70930;BME280;58588;48.102;19.682;2023-02-12T16:05:33;101275.88;;;6.70;70.56
70930;BME280;58588;48.102;19.682;2023-02-12T16:08:35;101276.16;;;6.43;72.53
70930;BME280;58588;48.102;19.682;2023-02-12T16:11:38;101272.00;;;6.15;72.81
70930;BME280;58588;48.102;19.682;2023-02-12T16:14:46;101286.22;;;5.92;73.71
70930;BME280;58588;48.102;19.682;2023-02-12T16:17:49;101290.50;;;5.69;73.40
70930;BME280;58588;48.102;19.682;2023-02-12T16:21:02;101292.69;;;5.38;77.32